Time;durP1;ratioP1;P1;durP2;ratioP2;P2;SDS_P1;SDS_P2;PMS_P1;PMS_P2;Temp;Humidity;BMP_temperature;BMP_pressure;BME280_temperature;BME280_humidity;BME280_pressure;Samples;Min_cycle;Max_cycle;Signal;HPM_P1;HPM_P2
2023/10/22 00:01:35;;;;;;;5.63;0.47;;;;;;;12.03;100.00;93616.84;4863302;29;20038;-85
2023/10/22 00:04:00;;;;;;;2.78;0.70;;;;;;;11.58;100.00;93625.28;4877660;29;20033;-86
2023/10/22 00:06:26;;;;;;;1.90;0.63;;;;;;;11.70;100.00;93637.94;4862062;29;20124;-85
2023/10/22 00:08:51;;;;;;;3.95;0.70;;;;;;;11.78;100.00;93645.13;4877656;29;20030;-85
2023/10/22 00:11:17;;;;;;;3.88;0.40;;;;;;;11.94;100.00;93648.22;4863085;29;20092;-85
2023/10/22 00:13:42;;;;;;;2.40;0.75;;;;;;;11.94;100.00;93648.22;4877236;29;20156;-85
2023/10/22 00:16:26;;;;;;;3.85;0.73;;;;;;;12.15;100.00;93632.06;4877506;29;20041;-85
2023/10/22 00:18:53;;;;;;;8.13;0.90;;;;;;;11.97;100.00;93652.09;4863322;29;20066;-85
2023/10/22 00:21:18;;;;;;;2.88;0.50;;;;;;;11.86;100.00;93651.53;4877156;29;20029;-85
2023/10/22 00:24:03;;;;;;;4.05;0.50;;;;;;;11.65;100.00;93649.31;4862099;29;20097;-85
2023/10/22 00:26:28;;;;;;;1.63;0.70;;;;;;;11.81;100.00;93634.03;4877279;29;20396;-85
2023/10/22 00:31:37;;;;;;;3.60;0.40;;;;;;;11.57;100.00;93658.63;4862999;29;20094;-84
2023/10/22 00:34:03;;;;;;;9.70;0.57;;;;;;;11.49;100.00;93663.78;4863063;29;20029;-85
2023/10/22 00:39:12;;;;;;;3.53;0.40;;;;;;;11.40;100.00;93666.25;4875065;29;20037;-85
2023/10/22 00:41:57;;;;;;;2.92;0.60;;;;;;;11.48;100.00;93673.47;4877164;29;20025;-85
2023/10/22 00:44:23;;;;;;;6.43;0.68;;;;;;;11.55;100.00;93675.72;4846657;29;20058;-85
2023/10/22 00:46:48;;;;;;;2.15;0.50;;;;;;;11.53;100.00;93683.09;4877093;29;20485;-86
2023/10/22 00:51:59;;;;;;;4.18;0.55;;;;;;;11.40;100.00;93690.66;4875049;29;20059;-85
2023/10/22 00:54:25;;;;;;;6.35;1.00;;;;;;;11.30;100.00;93667.22;4861753;29;20033;-85
2023/10/22 00:56:51;;;;;;;5.65;0.60;;;;;;;11.25;100.00;93675.94;4861787;29;20026;-84
2023/10/22 00:59:18;;;;;;;5.05;1.00;;;;;;;11.17;100.00;93681.88;4876963;29;20052;-85
2023/10/22 01:01:43;;;;;;;4.43;0.40;;;;;;;11.13;100.00;93665.91;4876880;29;20061;-84
2023/10/22 01:04:09;;;;;;;3.55;0.50;;;;;;;10.69;100.00;93685.47;4846512;29;20064;-85
2023/10/22 01:06:35;;;;;;;5.40;0.65;;;;;;;11.05;100.00;93671.84;4876887;29;20056;-85
2023/10/22 01:09:01;;;;;;;3.13;0.60;;;;;;;11.21;100.00;93679.44;4877006;29;20034;-85
2023/10/22 01:11:27;;;;;;;6.18;0.70;;;;;;;11.26;100.00;93685.41;4876913;29;20129;-85
2023/10/22 01:13:53;;;;;;;1.67;0.50;;;;;;;11.31;100.00;93687.91;4876929;29;20055;-85
2023/10/22 01:16:18;;;;;;;5.53;0.55;;;;;;;11.44;100.00;93689.00;4846348;29;20077;-85
2023/10/22 01:19:02;;;;;;;3.85;0.45;;;;;;;11.30;100.00;93690.81;4845895;29;20040;-85
2023/10/22 01:21:29;;;;;;;7.13;0.80;;;;;;;11.98;100.00;93693.06;4862729;29;20049;-85
2023/10/22 01:26:57;;;;;;;3.10;0.70;;;;;;;11.51;100.00;93699.13;4878127;29;20045;-85
2023/10/22 01:29:41;;;;;;;3.45;0.43;;;;;;;11.28;100.00;93706.06;4880428;29;20085;-84
2023/10/22 01:32:07;;;;;;;1.77;0.50;;;;;;;11.20;100.00;93714.59;4880413;29;20067;-84
2023/10/22 01:34:51;;;;;;;4.35;0.65;;;;;;;11.22;100.00;93722.97;4849562;29;20392;-85
2023/10/22 01:40:20;;;;;;;3.45;0.95;;;;;;;11.35;100.00;93719.59;4865920;29;20040;-85
2023/10/22 01:42:46;;;;;;;4.85;0.88;;;;;;;11.37;100.00;93724.53;4892261;29;20430;-85
2023/10/22 01:45:12;;;;;;;5.20;0.70;;;;;;;11.22;100.00;93723.72;4900087;29;20040;-85
2023/10/22 01:47:38;;;;;;;4.60;0.52;;;;;;;11.03;100.00;93726.38;4884676;29;20092;-85
2023/10/22 01:50:22;;;;;;;2.72;0.70;;;;;;;10.98;100.00;93719.38;4900013;29;20036;-85
2023/10/22 01:52:47;;;;;;;4.90;0.60;;;;;;;11.05;100.00;93718.22;4885683;29;20085;-85
2023/10/22 01:55:12;;;;;;;5.20;0.77;;;;;;;11.18;100.00;93725.38;4890045;29;20430;-85
2023/10/22 01:57:38;;;;;;;6.53;0.70;;;;;;;11.25;100.00;93722.38;4883125;29;20037;-85
2023/10/22 02:00:22;;;;;;;2.50;0.47;;;;;;;11.45;100.00;93722.03;4872782;29;20104;-84
2023/10/22 02:03:07;;;;;;;1.52;0.50;;;;;;;11.39;100.00;93717.94;4875215;29;20040;-84
2023/10/22 02:11:01;;;;;;;6.05;0.95;;;;;;;11.40;100.00;93716.88;4889716;29;20116;-85
2023/10/22 02:13:26;;;;;;;5.95;0.80;;;;;;;11.25;100.00;93719.75;4902648;29;20040;-85
2023/10/22 02:16:10;;;;;;;5.95;0.82;;;;;;;11.44;100.00;93722.34;4887150;29;20353;-85
2023/10/22 02:18:35;;;;;;;8.02;1.00;;;;;;;11.65;100.00;93729.84;4886997;29;20319;-85
2023/10/22 02:21:03;;;;;;;7.80;0.98;;;;;;;11.88;100.00;93738.63;4904256;29;20036;-85
2023/10/22 02:23:47;;;;;;;8.98;1.30;;;;;;;11.57;100.00;93733.91;4887185;29;20037;-85
2023/10/22 02:26:12;;;;;;;2.40;0.43;;;;;;;11.32;100.00;93738.50;4887120;29;20079;-85
2023/10/22 02:28:38;;;;;;;10.63;0.70;;;;;;;11.37;100.00;93740.28;4886821;29;20061;-85
2023/10/22 02:31:04;;;;;;;7.22;0.70;;;;;;;11.58;100.00;93744.13;4886830;29;20040;-85
2023/10/22 02:34:07;;;;;;;5.13;0.95;;;;;;;11.36;100.00;93744.75;4886999;29;20072;-85
2023/10/22 02:39:21;;;;;;;10.07;1.23;;;;;;;11.49;100.00;93750.34;4889216;29;20035;-84
2023/10/22 02:44:30;;;;;;;4.05;0.80;;;;;;;11.84;100.00;93745.53;4889153;29;20042;-85
2023/10/22 02:47:14;;;;;;;2.15;0.90;;;;;;;11.69;100.00;93746.56;4871184;29;20135;-84
2023/10/22 02:49:39;;;;;;;9.20;0.85;;;;;;;11.53;100.00;93748.69;4875223;29;20044;-85
2023/10/22 02:52:05;;;;;;;6.68;1.25;;;;;;;11.65;100.00;93756.09;4867820;29;20332;-84
2023/10/22 02:54:49;;;;;;;5.68;0.90;;;;;;;11.98;100.00;93748.94;4868064;29;20033;-84
2023/10/22 02:57:15;;;;;;;4.68;0.85;;;;;;;11.97;100.00;93751.84;4871968;29;20085;-85
2023/10/22 02:59:40;;;;;;;4.55;0.60;;;;;;;12.18;100.00;93751.50;4876873;29;20045;-85
2023/10/22 03:02:05;;;;;;;9.65;1.15;;;;;;;12.38;100.00;93745.84;4867621;29;20056;-84
2023/10/22 03:04:31;;;;;;;10.32;1.20;;;;;;;12.62;100.00;93744.06;4867642;29;20059;-85
2023/10/22 03:07:15;;;;;;;7.65;0.98;;;;;;;12.52;100.00;93753.72;4867482;29;20037;-84
2023/10/22 03:09:59;;;;;;;9.82;1.20;;;;;;;12.54;100.00;93750.78;4867573;29;20056;-84
2023/10/22 03:12:43;;;;;;;3.35;0.60;;;;;;;12.57;100.00;93748.38;4884138;29;20040;-84
2023/10/22 03:15:09;;;;;;;4.88;0.80;;;;;;;12.34;100.00;93751.97;4884704;29;20450;-84
2023/10/22 03:20:46;;;;;;;6.53;1.05;;;;;;;12.51;100.00;93759.28;4869979;29;20036;-84
2023/10/22 03:23:12;;;;;;;6.82;1.33;;;;;;;12.25;100.00;93757.94;4867355;29;20043;-84
2023/10/22 03:25:39;;;;;;;5.05;0.82;;;;;;;11.95;100.00;93765.28;4898440;29;20128;-85
2023/10/22 03:28:06;;;;;;;9.50;1.65;;;;;;;11.96;100.00;93768.66;4867654;29;20354;-84
2023/10/22 03:30:35;;;;;;;3.35;0.82;;;;;;;12.09;100.00;93785.56;4851934;29;20354;-84
2023/10/22 03:35:47;;;;;;;7.65;1.10;;;;;;;11.53;100.00;93780.16;4869712;29;20076;-85
2023/10/22 03:38:32;;;;;;;4.75;1.27;;;;;;;11.57;100.00;93776.69;4867105;29;20084;-84
2023/10/22 03:41:04;;;;;;;7.63;1.40;;;;;;;11.55;100.00;93785.91;4883570;29;20025;-85
2023/10/22 03:43:30;;;;;;;6.03;0.80;;;;;;;11.50;100.00;93778.13;4851815;29;20033;-84
2023/10/22 03:45:59;;;;;;;8.68;1.08;;;;;;;11.90;100.00;93772.47;4867065;29;20029;-85
2023/10/22 03:48:25;;;;;;;4.50;0.95;;;;;;;11.80;100.00;93778.69;4866071;29;20033;-85
2023/10/22 03:50:51;;;;;;;6.43;1.25;;;;;;;11.76;100.00;93777.69;4883402;29;20035;-85
2023/10/22 03:53:17;;;;;;;2.92;0.75;;;;;;;11.84;100.00;93779.66;4866881;29;20128;-85
2023/10/22 03:55:42;;;;;;;5.20;1.17;;;;;;;11.86;100.00;93780.94;4875980;29;20035;-84
2023/10/22 03:58:07;;;;;;;11.45;2.50;;;;;;;11.76;100.00;93782.94;4904533;29;20033;-84
2023/10/22 04:00:55;;;;;;;7.90;1.17;;;;;;;11.17;100.00;93781.50;4866742;29;20043;-85
2023/10/22 04:03:21;;;;;;;9.07;1.15;;;;;;;11.05;100.00;93792.41;4879020;29;20030;-85
2023/10/22 04:08:55;;;;;;;16.45;1.20;;;;;;;10.76;100.00;93785.47;4864755;29;20517;-85
2023/10/22 04:11:20;;;;;;;13.60;1.13;;;;;;;10.72;100.00;93793.09;4863537;29;20041;-85
2023/10/22 04:13:46;;;;;;;3.53;0.82;;;;;;;10.91;100.00;93794.94;4863549;29;20129;-84
2023/10/22 04:16:36;;;;;;;8.90;1.10;;;;;;;10.74;100.00;93790.19;4878790;29;20403;-84
2023/10/22 04:19:02;;;;;;;2.78;1.02;;;;;;;10.73;100.00;93805.16;4864572;29;20036;-85
2023/10/22 04:21:27;;;;;;;9.90;0.82;;;;;;;11.01;100.00;93809.75;4863177;29;20435;-84
2023/10/22 04:23:53;;;;;;;9.65;1.20;;;;;;;11.13;100.00;93794.38;4878735;29;20384;-84
2023/10/22 04:26:18;;;;;;;3.80;0.90;;;;;;;10.71;100.00;93798.63;4881655;29;20021;-84
2023/10/22 04:28:45;;;;;;;7.85;1.05;;;;;;;10.72;100.00;93798.34;4866208;29;20093;-85
2023/10/22 04:31:29;;;;;;;3.70;0.70;;;;;;;10.75;100.00;93805.63;4882840;29;20032;-84
2023/10/22 04:33:54;;;;;;;4.40;1.27;;;;;;;10.60;100.00;93790.88;4897494;29;20029;-85
2023/10/22 04:36:22;;;;;;;5.78;0.98;;;;;;;10.51;100.00;93799.63;4866095;29;20080;-84
2023/10/22 04:38:50;;;;;;;7.25;1.30;;;;;;;10.56;100.00;93796.97;4866456;29;20056;-85
2023/10/22 04:41:16;;;;;;;8.23;1.00;;;;;;;10.61;100.00;93799.53;4851203;29;20399;-84
2023/10/22 04:43:42;;;;;;;4.43;1.05;;;;;;;10.43;100.00;93798.41;4866142;29;20028;-84
2023/10/22 04:46:07;;;;;;;5.22;0.90;;;;;;;10.16;100.00;93800.53;4866071;29;20435;-85
2023/10/22 04:48:51;;;;;;;10.07;1.50;;;;;;;10.19;100.00;93805.19;4850993;29;20063;-85
2023/10/22 04:51:18;;;;;;;11.23;1.40;;;;;;;10.49;100.00;93810.41;4882642;29;20029;-85
2023/10/22 04:53:43;;;;;;;5.95;1.17;;;;;;;10.76;100.00;93806.44;4866380;29;20021;-85
2023/10/22 04:56:08;;;;;;;10.02;1.58;;;;;;;10.67;100.00;93808.09;4865981;29;20088;-84
2023/10/22 04:58:35;;;;;;;14.63;1.10;;;;;;;10.37;100.00;93810.00;4881559;29;20124;-84
2023/10/22 05:01:00;;;;;;;13.48;1.92;;;;;;;10.61;100.00;93817.88;4869098;29;20438;-84
2023/10/22 05:03:26;;;;;;;4.22;0.90;;;;;;;10.65;100.00;93820.72;4885749;29;20128;-85
2023/10/22 05:05:51;;;;;;;6.90;0.73;;;;;;;10.78;100.00;93820.03;4869633;29;20438;-84
2023/10/22 05:08:16;;;;;;;7.55;1.52;;;;;;;10.94;100.00;93817.22;4869792;29;20082;-84
2023/10/22 05:10:42;;;;;;;6.70;0.95;;;;;;;10.55;100.00;93819.75;4869549;29;20387;-84
2023/10/22 05:13:09;;;;;;;5.40;1.50;;;;;;;10.36;100.00;93824.16;4869942;29;20418;-84
2023/10/22 05:21:04;;;;;;;8.85;1.20;;;;;;;10.02;100.00;93836.25;4871979;29;20045;-84
2023/10/22 05:26:15;;;;;;;7.97;0.80;;;;;;;10.08;100.00;93850.84;4898278;29;20039;-84
2023/10/22 05:28:40;;;;;;;4.72;0.98;;;;;;;10.14;100.00;93849.75;4885107;29;20029;-84
2023/10/22 05:31:20;;;;;;;3.90;0.85;;;;;;;10.13;100.00;93855.25;4900565;29;20033;-85
2023/10/22 05:33:46;;;;;;;13.93;1.00;;;;;;;10.22;100.00;93856.22;4869770;29;20024;-85
2023/10/22 05:36:19;;;;;;;14.00;0.93;;;;;;;10.31;100.00;93853.78;4869232;29;20077;-84
2023/10/22 05:38:45;;;;;;;4.30;0.85;;;;;;;10.33;100.00;93862.13;4869099;29;20084;-84
2023/10/22 05:41:24;;;;;;;7.18;1.30;;;;;;;10.28;100.00;93865.59;4882382;29;20087;-85
2023/10/22 05:43:59;;;;;;;4.25;1.00;;;;;;;10.62;100.00;93863.19;4887391;29;20036;-85
2023/10/22 05:46:27;;;;;;;4.20;0.80;;;;;;;11.05;100.00;93863.19;4869486;29;20116;-85
2023/10/22 05:48:53;;;;;;;2.53;0.65;;;;;;;11.20;100.00;93877.94;4900384;29;20032;-85
2023/10/22 05:51:38;;;;;;;6.72;0.93;;;;;;;11.21;100.00;93879.50;4868809;29;20368;-85
2023/10/22 05:54:04;;;;;;;8.48;1.20;;;;;;;11.44;100.00;93883.09;4885590;29;20032;-85
2023/10/22 05:56:48;;;;;;;4.88;0.85;;;;;;;11.48;100.00;93891.19;4868885;29;20033;-85
2023/10/22 05:59:14;;;;;;;8.48;0.90;;;;;;;11.67;100.00;93895.66;4885391;29;20039;-84
2023/10/22 06:01:41;;;;;;;6.13;0.88;;;;;;;11.81;100.00;93904.34;4868627;29;20029;-84
2023/10/22 06:04:07;;;;;;;4.07;0.80;;;;;;;11.86;100.00;93911.38;4885352;29;20032;-84
2023/10/22 06:06:33;;;;;;;7.80;1.10;;;;;;;11.93;100.00;93921.50;4868589;29;20035;-84
2023/10/22 06:08:58;;;;;;;5.13;1.00;;;;;;;12.16;100.00;93911.97;4885226;29;20029;-84
2023/10/22 06:11:23;;;;;;;5.47;0.98;;;;;;;12.24;100.00;93919.22;4884463;29;20438;-84
2023/10/22 06:16:33;;;;;;;3.42;0.80;;;;;;;12.38;100.00;93921.09;4885205;29;20502;-84
2023/10/22 06:18:59;;;;;;;7.32;1.00;;;;;;;12.27;100.00;93931.75;4868402;29;20033;-85
2023/10/22 06:21:43;;;;;;;5.60;0.80;;;;;;;12.33;100.00;93934.28;4851854;29;20037;-85
2023/10/22 06:24:09;;;;;;;4.53;0.80;;;;;;;12.56;100.00;93941.25;4889331;29;20025;-84
2023/10/22 06:26:53;;;;;;;7.32;1.13;;;;;;;12.77;100.00;93955.91;4868565;29;20047;-85
2023/10/22 06:29:19;;;;;;;4.43;0.90;;;;;;;12.81;100.00;93944.50;4868721;29;20086;-84
2023/10/22 06:31:44;;;;;;;10.15;1.15;;;;;;;12.89;100.00;93955.41;4868219;29;20404;-85
2023/10/22 06:36:55;;;;;;;4.75;0.80;;;;;;;13.07;100.00;93956.38;4870668;29;20040;-85
2023/10/22 06:39:44;;;;;;;5.95;1.10;;;;;;;13.11;100.00;93970.50;4853388;29;20446;-85
2023/10/22 06:42:29;;;;;;;7.32;1.05;;;;;;;13.18;100.00;93975.38;4868474;29;20510;-84
2023/10/22 06:44:54;;;;;;;6.43;0.85;;;;;;;13.32;100.00;93991.16;4884679;29;20029;-85
2023/10/22 06:47:20;;;;;;;3.72;0.70;;;;;;;13.21;100.00;93994.00;4868027;29;20044;-85
2023/10/22 06:49:45;;;;;;;5.45;0.95;;;;;;;13.36;100.00;93992.13;4868196;29;20065;-85
2023/10/22 06:52:11;;;;;;;4.53;1.38;;;;;;;13.23;100.00;93989.22;4867719;29;20033;-85
2023/10/22 06:54:36;;;;;;;5.53;1.00;;;;;;;13.23;100.00;93997.09;4864809;29;20089;-85
2023/10/22 06:57:02;;;;;;;4.63;0.65;;;;;;;13.26;100.00;94001.00;4866398;29;20083;-85
2023/10/22 06:59:28;;;;;;;9.63;1.05;;;;;;;13.39;100.00;94000.22;4873028;29;20044;-85
2023/10/22 07:01:54;;;;;;;7.20;1.00;;;;;;;13.42;100.00;94001.50;4852796;29;20033;-84
2023/10/22 07:04:19;;;;;;;7.50;1.00;;;;;;;13.54;100.00;94004.41;4879986;29;20037;-85
2023/10/22 07:06:45;;;;;;;8.48;1.00;;;;;;;13.55;100.00;94005.22;4895509;29;20120;-84
2023/10/22 07:09:10;;;;;;;3.55;1.08;;;;;;;13.62;100.00;94002.19;4883311;29;20029;-85
2023/10/22 07:11:54;;;;;;;5.07;0.98;;;;;;;13.69;100.00;94005.97;4898178;29;20025;-85
2023/10/22 07:14:20;;;;;;;7.40;1.10;;;;;;;13.81;100.00;94002.06;4884584;29;20045;-85
2023/10/22 07:16:45;;;;;;;8.45;1.08;;;;;;;13.85;100.00;94003.00;4899301;29;20032;-85
2023/10/22 07:19:10;;;;;;;3.65;1.00;;;;;;;13.84;100.00;94002.25;4898376;29;20450;-85
2023/10/22 07:21:36;;;;;;;8.50;0.88;;;;;;;13.85;100.00;94008.28;4883902;29;20087;-85
2023/10/22 07:24:38;;;;;;;7.88;1.00;;;;;;;13.82;100.00;94011.50;4867473;29;20032;-85
2023/10/22 07:27:23;;;;;;;8.27;1.13;;;;;;;13.77;100.00;94024.75;4896020;29;20148;-85
2023/10/22 07:30:07;;;;;;;5.20;1.15;;;;;;;13.89;100.00;94026.91;4884191;29;20423;-85
2023/10/22 07:32:52;;;;;;;4.38;1.20;;;;;;;13.93;100.00;94022.59;4883472;29;20453;-85
2023/10/22 07:35:18;;;;;;;5.70;0.93;;;;;;;13.91;100.00;94020.25;4898095;29;20029;-85
2023/10/22 07:37:44;;;;;;;9.40;1.10;;;;;;;13.99;100.00;94014.28;4882591;29;20053;-85
2023/10/22 07:40:17;;;;;;;9.63;1.55;;;;;;;13.84;100.00;94018.03;4851602;29;20101;-85
2023/10/22 07:45:27;;;;;;;14.63;1.58;;;;;;;14.16;100.00;94020.00;4869389;29;20043;-85
2023/10/22 07:51:06;;;;;;;9.88;1.50;;;;;;;14.23;100.00;94026.41;4869302;29;20526;-86
2023/10/22 07:53:32;;;;;;;3.85;0.88;;;;;;;14.38;100.00;94019.25;4867486;29;20111;-85
2023/10/22 07:59:00;;;;;;;7.20;0.82;;;;;;;14.27;100.00;94032.66;4883354;29;20095;-86
2023/10/22 08:01:26;;;;;;;2.10;0.70;;;;;;;14.42;100.00;94039.44;4866692;29;20029;-85
2023/10/22 08:03:51;;;;;;;5.57;0.98;;;;;;;14.45;100.00;94039.91;4851555;29;20139;-85
2023/10/22 08:09:19;;;;;;;5.68;0.70;;;;;;;14.69;100.00;94045.63;4869166;29;20124;-85
2023/10/22 08:11:45;;;;;;;4.45;0.80;;;;;;;14.75;100.00;94048.19;4866652;29;20120;-85
2023/10/22 08:14:29;;;;;;;3.15;0.80;;;;;;;14.86;100.00;94048.72;4845557;29;20131;-85
2023/10/22 08:16:54;;;;;;;8.30;1.40;;;;;;;14.99;100.00;94047.84;4864874;29;20030;-85
2023/10/22 08:19:20;;;;;;;5.85;1.13;;;;;;;15.05;100.00;94054.56;4865721;29;20045;-86
2023/10/22 08:21:45;;;;;;;6.75;1.15;;;;;;;15.07;100.00;94052.41;4891284;29;20040;-86
2023/10/22 08:24:29;;;;;;;7.20;0.95;;;;;;;15.12;100.00;94052.28;4881876;29;20477;-85
2023/10/22 08:30:20;;;;;;;6.30;1.48;;;;;;;15.21;100.00;94054.94;4882993;29;20089;-86
2023/10/22 08:32:48;;;;;;;2.95;0.93;;;;;;;15.36;100.00;94060.91;4879456;29;20104;-86
2023/10/22 08:35:33;;;;;;;4.82;0.98;;;;;;;15.37;100.00;94060.63;4865799;29;20085;-86
2023/10/22 08:37:58;;;;;;;5.15;0.77;;;;;;;15.40;100.00;94065.28;4866511;29;20049;-86
2023/10/22 08:40:24;;;;;;;3.58;1.00;;;;;;;15.52;100.00;94061.28;4850867;29;20033;-86
2023/10/22 08:42:51;;;;;;;7.10;0.95;;;;;;;15.74;100.00;94070.97;4866348;29;20029;-86
2023/10/22 08:48:04;;;;;;;5.85;1.00;;;;;;;15.74;100.00;94075.47;4868811;29;21086;-85
2023/10/22 08:50:48;;;;;;;4.90;0.73;;;;;;;15.79;100.00;94075.34;4897052;29;20029;-86
2023/10/22 08:53:32;;;;;;;5.00;0.77;;;;;;;15.91;100.00;94074.78;4866552;29;20096;-86
2023/10/22 08:59:02;;;;;;;4.60;0.95;;;;;;;15.95;100.00;94073.84;4895166;29;20044;-86
2023/10/22 09:04:11;;;;;;;3.60;0.80;;;;;;;15.96;100.00;94083.34;4895208;29;20036;-86
2023/10/22 09:06:36;;;;;;;4.63;0.90;;;;;;;16.02;100.00;94083.19;4866457;29;20439;-87
2023/10/22 09:09:03;;;;;;;6.03;1.05;;;;;;;16.05;100.00;94091.28;4864128;29;20127;-87
2023/10/22 09:11:28;;;;;;;10.10;1.30;;;;;;;16.10;100.00;94087.72;4847798;29;20169;-86
2023/10/22 09:13:54;;;;;;;5.55;1.20;;;;;;;16.21;100.00;94081.06;4863971;29;20451;-86
2023/10/22 09:16:30;;;;;;;6.50;1.10;;;;;;;16.28;100.00;94077.16;4881618;29;20028;-87
2023/10/22 09:19:04;;;;;;;7.63;1.20;;;;;;;16.17;100.00;94066.13;4866222;29;20064;-85
2023/10/22 09:22:01;;;;;;;5.72;0.60;;;;;;;16.35;100.00;94072.16;4851286;29;20039;-87
2023/10/22 09:27:10;;;;;;;4.00;0.77;;;;;;;16.28;81.27;94069.97;4895187;29;20048;-85
2023/10/22 09:29:48;;;;;;;3.47;0.80;;;;;;;16.43;85.77;94076.69;4882583;29;20359;-87
2023/10/22 09:32:13;;;;;;;7.68;0.90;;;;;;;16.44;73.83;94080.88;4851150;29;20029;-85
2023/10/22 09:34:57;;;;;;;7.63;1.13;;;;;;;16.37;65.19;94075.31;4882324;29;20090;-88
2023/10/22 09:41:03;;;;;;;5.03;0.80;;;;;;;16.52;63.54;94088.06;4882322;29;20105;-85
2023/10/22 09:43:28;;;;;;;5.30;0.57;;;;;;;16.62;67.95;94094.09;4882606;29;20100;-86
2023/10/22 09:48:58;;;;;;;6.05;0.77;;;;;;;16.68;58.43;94088.34;4897846;29;20035;-85
2023/10/22 09:51:30;;;;;;;6.63;1.00;;;;;;;16.74;63.16;94081.03;4899912;29;20461;-85
2023/10/22 09:54:14;;;;;;;4.93;0.75;;;;;;;16.80;57.42;94093.00;4886074;29;20119;-86
2023/10/22 09:56:58;;;;;;;4.53;1.15;;;;;;;16.94;58.89;94100.00;4885567;29;20029;-86
2023/10/22 09:59:23;;;;;;;;;;;;;;;17.02;62.22;94101.09;4885312;29;20132;-86
2023/10/22 10:01:49;;;;;;;4.00;0.50;;;;;;;17.08;58.82;94105.13;4900167;29;19994;-86
2023/10/22 10:04:35;;;;;;;2.83;0.80;;;;;;;17.15;59.77;94110.75;4899836;29;20081;-84
2023/10/22 10:07:03;;;;;;;2.83;0.70;;;;;;;17.01;56.16;94113.56;4902620;29;20036;-86
2023/10/22 10:09:30;;;;;;;3.55;0.85;;;;;;;17.15;54.98;94115.25;4887624;29;20572;-85
2023/10/22 10:12:16;;;;;;;3.92;0.77;;;;;;;17.14;57.29;94118.97;4855304;29;20033;-85
2023/10/22 10:14:46;;;;;;;4.90;0.80;;;;;;;17.15;53.58;94123.19;4903967;29;20127;-84
2023/10/22 10:17:17;;;;;;;3.00;0.80;;;;;;;17.19;54.91;94110.88;4918449;29;20024;-86
2023/10/22 10:19:42;;;;;;;2.25;0.65;;;;;;;17.33;59.05;94118.63;4902607;29;20123;-85
2023/10/22 10:22:38;;;;;;;3.70;0.65;;;;;;;17.34;53.66;94112.25;4902603;29;20028;-86
2023/10/22 10:25:26;;;;;;;4.88;0.60;;;;;;;17.34;54.49;94115.66;4887222;29;20028;-85
2023/10/22 10:27:53;;;;;;;2.05;0.73;;;;;;;17.42;53.41;94113.31;4886960;29;20039;-86
2023/10/22 10:30:20;;;;;;;4.53;0.80;;;;;;;17.38;53.43;94113.16;4871478;29;20036;-85
2023/10/22 10:32:48;;;;;;;2.08;0.60;;;;;;;17.50;56.55;94110.63;4887069;29;20071;-85
2023/10/22 10:35:14;;;;;;;5.90;0.93;;;;;;;17.18;54.88;94111.97;4872001;29;20143;-86
2023/10/22 10:37:39;;;;;;;3.85;0.63;;;;;;;17.49;55.78;94110.94;4886749;29;20496;-87
2023/10/22 10:42:50;;;;;;;4.10;0.80;;;;;;;17.78;55.04;94107.56;4884699;29;20095;-86
2023/10/22 10:51:37;;;;;;;10.93;0.77;;;;;;;17.67;53.92;94116.94;4845295;29;20384;-86
2023/10/22 10:57:06;;;;;;;8.15;0.90;;;;;;;17.54;52.54;94113.44;4885739;29;20037;-86
2023/10/22 10:59:34;;;;;;;2.50;0.68;;;;;;;17.74;52.60;94105.84;4867214;29;20036;-84
2023/10/22 11:02:06;;;;;;;2.22;0.70;;;;;;;17.68;51.44;94113.19;4898979;29;20060;-85
2023/10/22 11:07:19;;;;;;;3.97;0.60;;;;;;;17.76;50.73;94120.34;4884145;29;20092;-84
2023/10/22 11:09:46;;;;;;;1.63;0.60;;;;;;;17.67;48.97;94112.44;4852340;29;20035;-85
2023/10/22 11:12:11;;;;;;;2.70;0.50;;;;;;;18.00;51.92;94115.56;4867373;29;20029;-85
2023/10/22 11:14:37;;;;;;;2.42;0.63;;;;;;;18.02;49.37;94111.53;4883127;29;20028;-86
2023/10/22 11:17:03;;;;;;;0.77;0.30;;;;;;;17.73;49.72;94118.34;4883902;29;20082;-84
2023/10/22 11:19:30;;;;;;;6.65;1.08;;;;;;;18.18;52.98;94110.97;4852566;29;20064;-86
2023/10/22 11:21:57;;;;;;;3.80;0.63;;;;;;;18.04;50.26;94113.84;4882771;29;20414;-86
2023/10/22 11:24:42;;;;;;;3.42;0.70;;;;;;;18.33;53.65;94122.88;4898404;29;20030;-84
2023/10/22 11:27:26;;;;;;;2.70;0.35;;;;;;;18.38;52.33;94117.38;4881947;29;20139;-84
2023/10/22 11:29:55;;;;;;;4.97;0.70;;;;;;;18.21;48.98;94119.03;4898573;29;20029;-85
2023/10/22 11:32:21;;;;;;;4.30;0.70;;;;;;;18.12;52.65;94114.88;4882608;29;20128;-84
2023/10/22 11:34:56;;;;;;;2.63;0.50;;;;;;;18.23;53.02;94113.41;4867108;29;20033;-85
2023/10/22 11:37:39;;;;;;;5.32;0.73;;;;;;;17.87;51.81;94114.69;4883800;29;20036;-85
2023/10/22 11:40:33;;;;;;;3.85;0.88;;;;;;;17.98;49.49;94121.16;4852337;29;20465;-85
2023/10/22 11:43:03;;;;;;;2.85;0.80;;;;;;;18.08;53.62;94130.66;4893025;29;20099;-85
2023/10/22 11:45:31;;;;;;;5.45;0.70;;;;;;;18.01;54.49;94130.34;4898528;29;20089;-85
2023/10/22 11:48:17;;;;;;;4.03;0.73;;;;;;;18.33;51.52;94128.16;4851872;29;20036;-85
2023/10/22 11:51:09;;;;;;;3.03;0.80;;;;;;;18.44;53.63;94131.22;4866887;29;20052;-86
2023/10/22 11:53:41;;;;;;;3.90;0.80;;;;;;;18.17;54.62;94133.28;4895915;29;20060;-86
2023/10/22 11:56:06;;;;;;;3.10;0.63;;;;;;;17.87;53.26;94147.25;4898093;29;20031;-87
2023/10/22 11:58:32;;;;;;;3.55;0.68;;;;;;;17.80;55.35;94139.03;4867193;29;20029;-85
2023/10/22 12:01:16;;;;;;;5.82;1.05;;;;;;;18.07;55.07;94135.19;4866670;29;20112;-85
2023/10/22 12:03:42;;;;;;;3.33;0.57;;;;;;;18.09;57.03;94130.34;4883336;29;20033;-85
2023/10/22 12:06:26;;;;;;;6.07;0.57;;;;;;;17.69;58.79;94135.19;4866652;29;20357;-85
2023/10/22 12:09:10;;;;;;;5.18;0.90;;;;;;;17.63;59.89;94151.22;4866245;29;20043;-85
2023/10/22 12:11:36;;;;;;;5.55;0.70;;;;;;;17.41;59.00;94151.47;4883317;29;20350;-85
2023/10/22 12:17:04;;;;;;;5.13;1.00;;;;;;;17.28;58.00;94159.28;4883058;29;20147;-84
2023/10/22 12:19:30;;;;;;;1.95;0.50;;;;;;;17.27;55.78;94157.72;4866787;29;20457;-84
2023/10/22 12:21:55;;;;;;;4.53;0.70;;;;;;;17.50;55.02;94163.59;4882933;29;20040;-85
2023/10/22 12:24:20;;;;;;;3.28;0.73;;;;;;;17.64;55.96;94160.72;4851268;29;20025;-84
2023/10/22 12:26:46;;;;;;;7.13;0.95;;;;;;;17.78;57.99;94159.75;4866227;29;20040;-83
2023/10/22 12:29:14;;;;;;;5.15;0.77;;;;;;;17.94;56.87;94163.44;4866512;29;20041;-85
2023/10/22 12:31:41;;;;;;;2.30;0.65;;;;;;;18.38;55.90;94154.50;4866413;29;20029;-86
2023/10/22 12:39:35;;;;;;;7.05;0.80;;;;;;;18.15;54.72;94144.19;4868845;29;20036;-86
2023/10/22 12:42:01;;;;;;;3.40;0.95;;;;;;;17.66;56.91;94147.19;4866122;29;20025;-85
2023/10/22 12:44:26;;;;;;;6.32;0.88;;;;;;;17.87;56.11;94151.78;4871448;29;20028;-86
2023/10/22 12:46:52;;;;;;;6.15;1.10;;;;;;;17.75;57.30;94155.09;4884567;29;20028;-84
2023/10/22 12:49:18;;;;;;;4.53;0.80;;;;;;;17.91;58.21;94158.75;4869243;29;20029;-85
2023/10/22 12:52:02;;;;;;;5.30;0.90;;;;;;;17.76;57.14;94159.28;4884585;29;20037;-84
2023/10/22 12:57:12;;;;;;;4.60;0.70;;;;;;;17.81;59.67;94164.44;4901331;29;20032;-86
2023/10/22 12:59:39;;;;;;;4.25;1.00;;;;;;;17.93;58.51;94156.59;4901272;29;20024;-84
2023/10/22 13:02:04;;;;;;;2.42;0.80;;;;;;;17.61;60.29;94161.38;4884750;29;20028;-84
2023/10/22 13:04:29;;;;;;;7.28;0.90;;;;;;;18.31;63.03;94162.19;4901236;29;20033;-85
2023/10/22 13:06:55;;;;;;;6.00;0.82;;;;;;;18.61;63.84;94167.47;4884351;29;20029;-86
2023/10/22 13:09:22;;;;;;;3.20;0.80;;;;;;;18.96;60.25;94159.25;4869298;29;20434;-86
2023/10/22 13:11:47;;;;;;;5.10;0.75;;;;;;;18.84;58.68;94165.25;4884499;29;20489;-85
2023/10/22 13:14:12;;;;;;;6.78;0.90;;;;;;;18.37;59.32;94161.69;4915730;29;20177;-84
2023/10/22 13:16:57;;;;;;;6.43;0.88;;;;;;;18.35;58.94;94171.03;4884505;29;20020;-86
2023/10/22 13:19:25;;;;;;;5.45;0.93;;;;;;;18.42;58.74;94179.28;4901254;29;20055;-86
2023/10/22 13:21:51;;;;;;;8.00;1.20;;;;;;;18.63;58.75;94179.31;4903754;29;20028;-86
2023/10/22 13:24:18;;;;;;;4.75;1.00;;;;;;;18.31;55.41;94176.25;4904906;29;20028;-85
2023/10/22 13:26:43;;;;;;;1.50;0.63;;;;;;;18.51;57.13;94184.53;4873101;29;20025;-86
2023/10/22 13:29:09;;;;;;;4.32;1.05;;;;;;;18.55;57.09;94182.03;4888013;29;20568;-85